sensor_id;sensor_type;location;lat;lon;timestamp;pressure;altitude;pressure_sealevel;temperature;humidity
79000;BME280;68406;53.914;27.416;2023-03-14T14:18:47;968;;;18.9;32.4
79000;BME280;68406;53.914;27.416;2023-03-14T14:24:19;968;;;17.7;33.8
79000;BME280;68406;53.914;27.416;2023-03-14T14:29:00;968;;;17.1;35
79000;BME280;68406;53.914;27.416;2023-03-14T14:33:53;968.1;;;17;34.9
79000;BME280;68406;53.914;27.416;2023-03-14T14:39:19;968.1;;;16.4;36
79000;BME280;68406;53.914;27.416;2023-03-14T14:43:57;968.1;;;16.3;36.3
79000;BME280;68406;53.914;27.416;2023-03-14T14:48:37;968.2;;;15.4;37.6
79000;BME280;68406;53.914;27.416;2023-03-14T14:54:13;968.2;;;14.4;39.9
79000;BME280;68406;53.914;27.416;2023-03-14T14:59:21;968.2;;;14.2;40.6
79000;BME280;68406;53.914;27.416;2023-03-14T15:03:35;968.1;;;13.9;40.5
79000;BME280;68406;53.914;27.416;2023-03-14T15:08:52;968;;;13.7;40.8
79000;BME280;68406;53.914;27.416;2023-03-14T15:14:19;967.9;;;13.6;41.1
79000;BME280;68406;53.914;27.416;2023-03-14T15:19:20;967.9;;;13.7;41.6
79000;BME280;68406;53.914;27.416;2023-03-14T15:23:51;968;;;13.7;41.7
79000;BME280;68406;53.914;27.416;2023-03-14T15:28:47;968.1;;;13.5;42.4
79000;BME280;68406;53.914;27.416;2023-03-14T15:34:19;968.1;;;13.4;42.4
79000;BME280;68406;53.914;27.416;2023-03-14T15:39:04;968.1;;;13.4;42.8
79000;BME280;68406;53.914;27.416;2023-03-14T15:43:37;968.1;;;13.1;43
79000;BME280;68406;53.914;27.416;2023-03-14T15:48:59;968;;;13;43.2
79000;BME280;68406;53.914;27.416;2023-03-14T15:54:05;968.1;;;12.8;43.7
79000;BME280;68406;53.914;27.416;2023-03-14T15:58:37;968.1;;;12.6;44
79000;BME280;68406;53.914;27.416;2023-03-14T16:03:47;968.1;;;12.3;44.7
79000;BME280;68406;53.914;27.416;2023-03-14T16:09:19;968.2;;;12.2;44.9
79000;BME280;68406;53.914;27.416;2023-03-14T16:13:37;968.2;;;12.1;45.2
79000;BME280;68406;53.914;27.416;2023-03-14T16:19:13;968.2;;;12;45.3
79000;BME280;68406;53.914;27.416;2023-03-14T16:24:13;968.3;;;12;45.6
79000;BME280;68406;53.914;27.416;2023-03-14T16:29:13;968.3;;;11.9;45.6
79000;BME280;68406;53.914;27.416;2023-03-14T16:34:17;968.3;;;11.9;45.7
79000;BME280;68406;53.914;27.416;2023-03-14T16:38:37;968.4;;;11.8;45.9
79000;BME280;68406;53.914;27.416;2023-03-14T16:44:21;968.4;;;11.7;46.2
79000;BME280;68406;53.914;27.416;2023-03-14T16:49:07;968.5;;;11.7;46.3
79000;BME280;68406;53.914;27.416;2023-03-14T16:54:21;968.5;;;11.7;46.3
79000;BME280;68406;53.914;27.416;2023-03-14T16:58:59;968.5;;;11.6;46.5
79000;BME280;68406;53.914;27.416;2023-03-14T17:04:05;968.5;;;11.4;47
79000;BME280;68406;53.914;27.416;2023-03-14T17:08:37;968.4;;;11.3;47.2
79000;BME280;68406;53.914;27.416;2023-03-14T17:14:13;968.4;;;11.3;47.5
79000;BME280;68406;53.914;27.416;2023-03-14T17:18:53;968.4;;;11.1;47.6
79000;BME280;68406;53.914;27.416;2023-03-14T17:23:43;968.4;;;11.1;47.8
79000;BME280;68406;53.914;27.416;2023-03-14T17:29:21;968.4;;;11.1;48
79000;BME280;68406;53.914;27.416;2023-03-14T17:33:59;968.4;;;11;47.9
79000;BME280;68406;53.914;27.416;2023-03-14T17:38:59;968.4;;;11;48.2
79000;BME280;68406;53.914;27.416;2023-03-14T17:44:21;968.4;;;10.9;48.2
79000;BME280;68406;53.914;27.416;2023-03-14T17:48:59;968.3;;;10.9;48.4
79000;BME280;68406;53.914;27.416;2023-03-14T17:53:37;968.4;;;10.7;48.7
79000;BME280;68406;53.914;27.416;2023-03-14T17:59:08;968.4;;;10.6;49
79000;BME280;68406;53.914;27.416;2023-03-14T18:04:19;968.4;;;10.6;49.2
79000;BME280;68406;53.914;27.416;2023-03-14T18:08:57;968.3;;;10.5;49.5
79000;BME280;68406;53.914;27.416;2023-03-14T18:13:47;968.3;;;10.4;49.7
79000;BME280;68406;53.914;27.416;2023-03-14T18:19:21;968.3;;;10.3;49.9
79000;BME280;68406;53.914;27.416;2023-03-14T18:24:20;968.3;;;10.3;50.1
79000;BME280;68406;53.914;27.416;2023-03-14T18:28:51;968.3;;;10.2;50.2
79000;BME280;68406;53.914;27.416;2023-03-14T18:34:10;968.4;;;10.3;50.3
79000;BME280;68406;53.914;27.416;2023-03-14T18:39:19;968.4;;;10.2;50.2
79000;BME280;68406;53.914;27.416;2023-03-14T18:43:45;968.4;;;10.2;50.3
79000;BME280;68406;53.914;27.416;2023-03-14T18:48:45;968.4;;;10.2;50.4
79000;BME280;68406;53.914;27.416;2023-03-14T18:53:57;968.4;;;10.2;50.6
79000;BME280;68406;53.914;27.416;2023-03-14T18:59:05;968.5;;;10.1;50.7
79000;BME280;68406;53.914;27.416;2023-03-14T19:03:45;968.5;;;10.1;51
79000;BME280;68406;53.914;27.416;2023-03-14T19:08:57;968.5;;;10.1;50.9
79000;BME280;68406;53.914;27.416;2023-03-14T19:14:19;968.5;;;10.1;51.1
79000;BME280;68406;53.914;27.416;2023-03-14T19:18:37;968.5;;;10;51.3
79000;BME280;68406;53.914;27.416;2023-03-14T19:24:19;968.6;;;9.9;51.4
79000;BME280;68406;53.914;27.416;2023-03-14T19:29:11;968.7;;;9.8;51.6
79000;BME280;68406;53.914;27.416;2023-03-14T19:33:57;968.7;;;9.8;51.7
79000;BME280;68406;53.914;27.416;2023-03-14T19:39:05;968.7;;;9.8;51.7
79000;BME280;68406;53.914;27.416;2023-03-14T19:44:09;968.7;;;9.8;51.7
79000;BME280;68406;53.914;27.416;2023-03-14T19:48:37;968.7;;;9.8;51.8
79000;BME280;68406;53.914;27.416;2023-03-14T19:54:05;968.7;;;9.8;51.8
79000;BME280;68406;53.914;27.416;2023-03-14T19:59:19;968.8;;;9.8;51.8
79000;BME280;68406;53.914;27.416;2023-03-14T20:03:57;968.8;;;9.8;52
79000;BME280;68406;53.914;27.416;2023-03-14T20:09:19;968.8;;;9.8;52.1
79000;BME280;68406;53.914;27.416;2023-03-14T20:14:17;968.8;;;9.8;52.1
79000;BME280;68406;53.914;27.416;2023-03-14T20:19:11;968.7;;;9.8;52.2
79000;BME280;68406;53.914;27.416;2023-03-14T20:23:37;968.7;;;9.7;52.4
79000;BME280;68406;53.914;27.416;2023-03-14T20:28:37;968.8;;;9.6;52.6
79000;BME280;68406;53.914;27.416;2023-03-14T20:33:39;968.8;;;9.5;52.9
79000;BME280;68406;53.914;27.416;2023-03-14T20:39:05;968.8;;;9.4;53.2
79000;BME280;68406;53.914;27.416;2023-03-14T20:43:37;968.9;;;9.4;53.4
79000;BME280;68406;53.914;27.416;2023-03-14T20:49:19;968.9;;;9.4;53.6
79000;BME280;68406;53.914;27.416;2023-03-14T20:53:57;968.9;;;9.4;53.6
79000;BME280;68406;53.914;27.416;2023-03-14T20:58:45;968.9;;;9.4;53.8
79000;BME280;68406;53.914;27.416;2023-03-14T21:03:43;968.9;;;9.4;53.8
79000;BME280;68406;53.914;27.416;2023-03-14T21:09:19;968.9;;;9.4;53.9
79000;BME280;68406;53.914;27.416;2023-03-14T21:13:37;968.9;;;9.4;53.9
79000;BME280;68406;53.914;27.416;2023-03-14T21:18:37;968.8;;;9.4;54
79000;BME280;68406;53.914;27.416;2023-03-14T21:24:17;968.9;;;9.4;54
79000;BME280;68406;53.914;27.416;2023-03-14T21:29:05;968.9;;;9.4;54
79000;BME280;68406;53.914;27.416;2023-03-14T21:33:41;969;;;9.3;54.2
79000;BME280;68406;53.914;27.416;2023-03-14T21:38:57;969.1;;;9.3;54.3
79000;BME280;68406;53.914;27.416;2023-03-14T21:44:19;969.1;;;9.3;54.4
79000;BME280;68406;53.914;27.416;2023-03-14T21:49:05;969.1;;;9.2;54.6
79000;BME280;68406;53.914;27.416;2023-03-14T21:53:45;969.1;;;9.2;54.7
79000;BME280;68406;53.914;27.416;2023-03-14T21:58:37;969.2;;;9.2;54.8
79000;BME280;68406;53.914;27.416;2023-03-14T22:04:05;969.3;;;9.2;54.8
79000;BME280;68406;53.914;27.416;2023-03-14T22:08:37;969.4;;;9.1;54.9
79000;BME280;68406;53.914;27.416;2023-03-14T22:13:57;969.4;;;9.1;55
79000;BME280;68406;53.914;27.416;2023-03-14T22:19:19;969.4;;;9.1;55.1
79000;BME280;68406;53.914;27.416;2023-03-14T22:23:37;969.4;;;9.1;55.1
79000;BME280;68406;53.914;27.416;2023-03-14T22:29:19;969.4;;;9.2;55
79000;BME280;68406;53.914;27.416;2023-03-14T22:33:39;969.5;;;9.2;55
79000;BME280;68406;53.914;27.416;2023-03-14T22:38:49;969.5;;;9.2;55
79000;BME280;68406;53.914;27.416;2023-03-14T22:43:45;969.5;;;9.1;55
79000;BME280;68406;53.914;27.416;2023-03-14T22:48:37;969.5;;;9.1;55.1
79000;BME280;68406;53.914;27.416;2023-03-14T22:53:37;969.6;;;9.1;55.1
79000;BME280;68406;53.914;27.416;2023-03-14T22:59:05;969.6;;;9.1;55.1
79000;BME280;68406;53.914;27.416;2023-03-14T23:04:17;969.7;;;9.1;55.2
79000;BME280;68406;53.914;27.416;2023-03-14T23:08:57;969.7;;;9.1;55.4
79000;BME280;68406;53.914;27.416;2023-03-14T23:14:19;969.6;;;9.1;55.4
79000;BME280;68406;53.914;27.416;2023-03-14T23:18:40;969.6;;;9.2;55.2
79000;BME280;68406;53.914;27.416;2023-03-14T23:24:11;969.7;;;9.1;55.2
79000;BME280;68406;53.914;27.416;2023-03-14T23:28:37;969.8;;;9.1;55.3
79000;BME280;68406;53.914;27.416;2023-03-14T23:33:43;969.9;;;9.1;55.3
79000;BME280;68406;53.914;27.416;2023-03-14T23:39:06;969.8;;;9.1;55.4
79000;BME280;68406;53.914;27.416;2023-03-14T23:44:05;969.8;;;9.1;55.5
79000;BME280;68406;53.914;27.416;2023-03-14T23:48:45;969.9;;;9.1;55.5
79000;BME280;68406;53.914;27.416;2023-03-14T23:54:19;969.9;;;9.1;55.7
79000;BME280;68406;53.914;27.416;2023-03-14T23:59:19;969.9;;;9.1;55.6
